Hauptseite
METAR-TAF:

METAR-TAF

Flughäfen :

Flughafen Ostende-Brügge

Ostende, Belgien

Breite: 51-12N, Länge: 002-52E, Höhe: 4 m

Beobachtung

Neuester Wetterbericht von vor 15 Minuten, um 13:20 UTC
Wind 5 kt aus Nord/Nordwest, variierte zwischen West und Nord
Temperatur 20°C
Luftfeuchtigkeit 49%
Luftdruck 1017 hPa
Sichtweite 10 km oder mehr
keine Wolken unter 1500 m und keine Kumulonimbus oder Gewitterwolken

METAR: EBOS 231320Z 33005KT 270V010 CAVOK 20/09 Q1017 NOSIG

Zeit: 15:35 (13:35 UTC)

Prognose

Neuester Wetterbericht von vor 2 Stunden und 25 Minuten, um 11:10 UTC
Gültige Prognose vom 23 um 12 UTC bis 24 um 18 UTC
Wind 5 kt aus Nord
Sichtweite 10 km oder mehr
Leicht bewölkt in der Höhe von 4500 ft

TAF: EBOS 231110Z 2312/2418 36005KT 9999 FEW045

Wetterbeobachtungen und Prognosen von mehr als 4000 Flughäfen (METAR und TAF Bericht).

Die verfügbaren Stationen werden durch gelbe und rote Markierungen auf der Karte dargestellt.

Führen Sie die Maus auf sie, um den Namen der Station zu sehen.

Darauf klicken, um die Beobachtung von Wetterbeobachtungen und Prognosen zu sehen.

Um die Karte zu ändern : klicken Sie auf den grünen Tasten mit einem schwarzen Kreuz Zum Vergrößern, auf den grünen Button mit einem Gedankenstrich zu verkleinern, oder auf die grünen Pfeile für benachbarte Karten.


METAR-TAF: